Time;durP1;ratioP1;P1;durP2;ratioP2;P2;SDS_P1;SDS_P2;PMS_P1;PMS_P2;Temp;Humidity;BMP_temperature;BMP_pressure;BME280_temperature;BME280_humidity;BME280_pressure;Samples;Min_cycle;Max_cycle;Signal;HPM_P1;HPM_P2
2022/02/14 00:00:12;;;;;;;1060.85;989.72;;;;;;;5.28;57.30;100552.59;693677;28;23248;-70
2022/02/14 00:00:37;;;;;;;1061.30;990.20;;;;;;;5.26;57.28;100555.41;692584;28;61661;-70
2022/02/14 00:00:58;;;;;;;1063.57;992.40;;;;;;;5.26;57.35;100554.59;692731;28;46391;-70
2022/02/14 00:01:20;;;;;;;1059.65;988.65;;;;;;;5.26;57.34;100558.09;692806;28;21215;-70
2022/02/14 00:01:42;;;;;;;1056.25;985.38;;;;;;;5.26;57.32;100558.09;692263;28;69534;-70
2022/02/14 00:02:04;;;;;;;1055.57;984.72;;;;;;;5.27;57.34;100553.59;693669;28;22433;-70
2022/02/14 00:02:25;;;;;;;1056.30;985.47;;;;;;;5.30;57.38;100551.47;691461;28;44465;-70
2022/02/14 00:02:47;;;;;;;1056.82;986.03;;;;;;;5.31;57.51;100549.63;693745;28;22402;-69
2022/02/14 00:03:09;;;;;;;1060.10;989.03;;;;;;;5.31;57.27;100554.97;692834;28;44362;-69
2022/02/14 00:03:30;;;;;;;1062.13;990.95;;;;;;;5.32;57.39;100551.31;692722;28;45268;-70
2022/02/14 00:03:51;;;;;;;1061.55;990.45;;;;;;;5.34;57.22;100550.16;696748;28;1120;-69
2022/02/14 00:04:13;;;;;;;1058.45;987.55;;;;;;;5.34;57.30;100552.00;696530;28;19937;-68
2022/02/14 00:04:34;;;;;;;1050.15;979.55;;;;;;;5.33;57.26;100545.81;695606;28;46302;-69
2022/02/14 00:04:55;;;;;;;1051.53;980.85;;;;;;;5.34;57.26;100543.97;696263;28;22498;-70
2022/02/14 00:05:16;;;;;;;1058.07;987.13;;;;;;;5.33;56.84;100553.84;696493;28;23396;-70
2022/02/14 00:05:39;;;;;;;1057.63;986.75;;;;;;;5.35;57.11;100540.31;693548;28;20250;-69
2022/02/14 00:06:00;;;;;;;1054.93;984.03;;;;;;;5.35;57.15;100549.19;691284;28;66846;-69
2022/02/14 00:06:21;;;;;;;1055.03;984.22;;;;;;;5.33;57.14;100545.81;693199;28;22453;-69
2022/02/14 00:06:42;;;;;;;1054.93;984.10;;;;;;;5.33;56.97;100539.59;693685;28;23409;-69
2022/02/14 00:07:03;;;;;;;1056.28;985.47;;;;;;;5.31;57.15;100550.47;693430;28;23464;-69
2022/02/14 00:07:26;;;;;;;1059.38;988.38;;;;;;;5.31;57.04;100553.13;693533;28;22047;-70
2022/02/14 00:07:47;;;;;;;1062.55;991.35;;;;;;;5.30;57.28;100543.44;690705;28;69273;-69
2022/02/14 00:08:09;;;;;;;1056.40;985.60;;;;;;;5.30;57.07;100547.94;691496;28;44358;-69
2022/02/14 00:08:31;;;;;;;1054.43;983.70;;;;;;;5.29;57.24;100552.44;691437;28;70225;-69
2022/02/14 00:08:54;;;;;;;1056.20;985.25;;;;;;;5.29;57.22;100546.25;693747;28;23485;-70
2022/02/14 00:09:15;;;;;;;1055.72;984.83;;;;;;;5.30;57.29;100550.59;693065;28;46352;-70
2022/02/14 00:09:36;;;;;;;1058.30;987.30;;;;;;;5.29;57.33;100546.25;693533;28;23252;-69
2022/02/14 00:09:57;;;;;;;1055.18;984.38;;;;;;;5.30;57.15;100546.13;693834;28;21572;-70
2022/02/14 00:10:19;;;;;;;1059.55;988.58;;;;;;;5.30;57.34;100543.44;693688;28;21963;-69
2022/02/14 00:10:40;;;;;;;1058.50;987.50;;;;;;;5.32;57.13;100551.31;693609;28;44782;-69
2022/02/14 00:11:01;;;;;;;1057.13;986.13;;;;;;;5.33;57.10;100548.50;694639;28;21303;-69
2022/02/14 00:11:24;;;;;;;1060.50;989.40;;;;;;;5.33;57.13;100535.09;665627;28;70137;-69
2022/02/14 00:11:46;;;;;;;1058.25;987.35;;;;;;;5.34;57.23;100543.97;689417;28;23832;-69
2022/02/14 00:12:08;;;;;;;1058.38;987.42;;;;;;;5.33;57.13;100543.16;687699;28;69202;-69
2022/02/14 00:12:29;;;;;;;1060.85;989.80;;;;;;;5.32;57.03;100544.13;689007;28;22412;-69
2022/02/14 00:12:51;;;;;;;1058.80;987.83;;;;;;;5.35;57.12;100548.34;688185;28;23125;-69
2022/02/14 00:13:13;;;;;;;1057.10;986.20;;;;;;;5.32;57.10;100541.44;687669;28;44381;-69
2022/02/14 00:13:35;;;;;;;1058.43;987.42;;;;;;;5.31;56.95;100542.44;689872;28;43649;-70
2022/02/14 00:13:56;;;;;;;1065.03;993.70;;;;;;;5.30;57.05;100547.94;692536;28;46292;-70
2022/02/14 00:14:17;;;;;;;1065.85;994.47;;;;;;;5.30;57.05;100548.78;693488;28;23735;-70
2022/02/14 00:14:39;;;;;;;1060.43;989.33;;;;;;;5.29;57.09;100549.78;693539;28;23440;-69
2022/02/14 00:15:00;;;;;;;1061.78;990.58;;;;;;;5.29;57.09;100548.94;692768;28;45250;-69
2022/02/14 00:15:21;;;;;;;1063.60;992.40;;;;;;;5.28;57.17;100545.41;696955;28;1094;-70
2022/02/14 00:15:44;;;;;;;1061.13;990.05;;;;;;;5.27;57.16;100542.91;695921;28;18718;-69
2022/02/14 00:16:05;;;;;;;1057.15;986.10;;;;;;;5.26;57.30;100543.88;695159;28;45247;-69
2022/02/14 00:16:27;;;;;;;1061.72;990.60;;;;;;;5.29;57.17;100538.22;695934;28;4203;-70
2022/02/14 00:16:56;;;;;;;1059.35;988.33;;;;;;;5.27;57.11;100542.91;694553;28;58576;-70
2022/02/14 00:17:17;;;;;;;1050.35;979.72;;;;;;;5.27;57.29;100549.09;693211;28;46386;-69
2022/02/14 00:17:39;;;;;;;1056.60;985.65;;;;;;;5.29;57.07;100539.06;693536;28;21517;-69
2022/02/14 00:18:04;;;;;;;1063.80;992.40;;;;;;;5.30;57.22;100537.22;692721;28;37321;-70
2022/02/14 00:18:25;;;;;;;1065.68;994.38;;;;;;;5.29;57.11;100552.44;692880;28;44999;-70
2022/02/14 00:18:47;;;;;;;1061.68;990.53;;;;;;;5.29;57.06;100536.38;692563;28;46386;-70
2022/02/14 00:19:08;;;;;;;1057.00;986.13;;;;;;;5.31;57.29;100545.09;693510;28;21307;-70
2022/02/14 00:19:30;;;;;;;1057.28;986.30;;;;;;;5.33;57.12;100542.28;693810;28;23229;-69
2022/02/14 00:19:51;;;;;;;1061.63;990.47;;;;;;;5.34;57.12;100536.78;693078;28;45236;-70
2022/02/14 00:20:12;;;;;;;1057.82;986.88;;;;;;;5.35;57.21;100530.44;693918;28;15167;-69
2022/02/14 00:20:33;;;;;;;1050.57;979.88;;;;;;;5.35;57.20;100541.16;693700;28;22114;-69
2022/02/14 00:20:55;;;;;;;1059.38;988.28;;;;;;;5.35;57.03;100541.16;693459;28;22387;-69
2022/02/14 00:21:17;;;;;;;1063.68;992.47;;;;;;;5.36;56.92;100542.84;690951;28;44307;-69
2022/02/14 00:21:38;;;;;;;1058.55;987.58;;;;;;;5.37;56.94;100535.66;693407;28;22448;-70
2022/02/14 00:22:00;;;;;;;1057.82;986.90;;;;;;;5.36;57.02;100540.16;693777;28;22471;-69
2022/02/14 00:22:22;;;;;;;1058.65;987.70;;;;;;;5.36;56.88;100534.81;693101;28;46286;-69
2022/02/14 00:22:45;;;;;;;1053.93;983.10;;;;;;;5.37;56.87;100535.66;695201;28;46269;-69
2022/02/14 00:23:06;;;;;;;1055.68;984.78;;;;;;;5.36;56.92;100536.63;694734;28;69465;-69
2022/02/14 00:23:28;;;;;;;1054.60;983.80;;;;;;;5.36;56.89;100537.50;695830;28;22387;-70
2022/02/14 00:23:50;;;;;;;1053.53;982.63;;;;;;;5.37;56.90;100533.81;694894;28;69179;-70
2022/02/14 00:24:11;;;;;;;1055.23;984.40;;;;;;;5.36;56.93;100534.81;696342;28;21448;-70
2022/02/14 00:24:32;;;;;;;1055.13;984.28;;;;;;;5.34;56.80;100534.09;694489;28;44427;-70
2022/02/14 00:24:58;;;;;;;1054.90;984.03;;;;;;;5.34;56.85;100530.59;693672;28;21518;-69
2022/02/14 00:25:19;;;;;;;1061.10;989.90;;;;;;;5.35;56.95;100533.13;689340;28;115383;-70
2022/02/14 00:25:40;;;;;;;1061.55;990.45;;;;;;;5.36;56.87;100534.81;693477;28;21605;-70
2022/02/14 00:26:03;;;;;;;1057.30;986.25;;;;;;;5.34;56.75;100535.94;693865;28;974;-70
2022/02/14 00:26:24;;;;;;;1056.65;985.60;;;;;;;5.35;56.65;100532.28;691303;28;67797;-69
2022/02/14 00:26:53;;;;;;;1057.80;986.75;;;;;;;5.34;56.92;100534.09;693851;28;13592;-69
2022/02/14 00:27:14;;;;;;;1060.30;989.20;;;;;;;5.33;56.91;100531.56;689704;28;138399;-70
2022/02/14 00:27:36;;;;;;;1060.68;989.58;;;;;;;5.30;57.00;100532.72;693674;28;21491;-70
2022/02/14 00:27:57;;;;;;;1059.43;988.25;;;;;;;5.30;56.78;100538.09;691770;28;67509;-69
2022/02/14 00:28:19;;;;;;;1060.63;989.42;;;;;;;5.32;56.81;100537.94;693501;28;22384;-69
2022/02/14 00:28:40;;;;;;;1059.30;988.20;;;;;;;5.31;56.93;100529.03;693399;28;23406;-69
2022/02/14 00:29:02;;;;;;;1058.38;987.25;;;;;;;5.31;57.01;100536.25;693218;28;22373;-69
2022/02/14 00:29:23;;;;;;;1056.18;985.28;;;;;;;5.29;56.93;100541.75;691607;28;46154;-69
2022/02/14 00:29:45;;;;;;;1058.60;987.58;;;;;;;5.27;56.82;100533.03;692179;28;46309;-69
2022/02/14 00:30:08;;;;;;;1060.40;989.20;;;;;;;5.29;56.84;100535.56;693426;28;23540;-69
2022/02/14 00:30:30;;;;;;;1060.95;989.75;;;;;;;5.27;57.00;100530.34;692043;28;69675;-69
2022/02/14 00:30:51;;;;;;;1057.77;986.77;;;;;;;5.29;56.86;100536.38;691908;28;69202;-69
2022/02/14 00:31:12;;;;;;;1055.07;984.17;;;;;;;5.28;56.97;100526.66;692966;28;43571;-69
2022/02/14 00:31:34;;;;;;;1057.28;986.17;;;;;;;5.29;56.91;100532.88;692699;28;22183;-69
2022/02/14 00:31:55;;;;;;;1057.32;986.35;;;;;;;5.27;57.02;100533.03;692827;28;44507;-69
2022/02/14 00:32:20;;;;;;;1056.18;985.28;;;;;;;5.27;56.97;100527.66;693892;28;22366;-70
2022/02/14 00:32:41;;;;;;;1055.78;984.85;;;;;;;5.29;56.98;100532.88;691258;28;92232;-70
2022/02/14 00:33:03;;;;;;;1059.75;988.72;;;;;;;5.27;56.86;100530.34;693606;28;21541;-69
2022/02/14 00:33:24;;;;;;;1060.43;989.33;;;;;;;5.28;56.96;100531.19;692757;28;44381;-70
2022/02/14 00:33:45;;;;;;;1062.53;991.33;;;;;;;5.27;56.92;100529.50;693796;28;22394;-69
2022/02/14 00:34:07;;;;;;;1062.00;990.88;;;;;;;5.27;57.00;100526.84;692874;28;43465;-70
2022/02/14 00:34:29;;;;;;;1059.30;988.30;;;;;;;5.29;56.95;100536.38;694421;28;1472;-70
2022/02/14 00:34:51;;;;;;;1058.35;987.35;;;;;;;5.28;56.97;100532.00;693631;28;22376;-69
2022/02/14 00:35:14;;;;;;;1057.95;987.05;;;;;;;5.29;56.82;100528.34;692871;28;46331;-69
2022/02/14 00:35:36;;;;;;;1054.97;984.17;;;;;;;5.27;56.82;100535.69;691339;28;69110;-70
2022/02/14 00:35:58;;;;;;;1056.05;985.03;;;;;;;5.26;56.87;100523.28;691975;28;52286;-69
2022/02/14 00:36:19;;;;;;;1055.95;985.05;;;;;;;5.27;57.03;100529.50;692903;28;22411;-69
2022/02/14 00:36:42;;;;;;;1053.97;983.15;;;;;;;5.27;56.90;100526.84;692912;28;46407;-70
2022/02/14 00:37:04;;;;;;;1060.03;988.95;;;;;;;5.26;56.97;100531.31;692288;28;56781;-69
2022/02/14 00:37:25;;;;;;;1060.65;989.60;;;;;;;5.25;57.04;100524.31;693335;28;22370;-69
2022/02/14 00:37:48;;;;;;;1060.97;989.83;;;;;;;5.26;56.83;100528.66;692709;28;45883;-70
2022/02/14 00:38:12;;;;;;;1060.03;988.95;;;;;;;5.23;57.05;100523.59;692877;28;44386;-70
2022/02/14 00:38:33;;;;;;;1062.32;991.13;;;;;;;5.23;57.07;100524.44;691034;28;93003;-69
2022/02/14 00:38:55;;;;;;;1060.28;989.17;;;;;;;5.26;57.00;100517.09;692880;28;46286;-69
2022/02/14 00:39:16;;;;;;;1059.45;988.45;;;;;;;5.27;56.86;100533.03;693741;28;22353;-70
2022/02/14 00:39:38;;;;;;;1058.10;987.20;;;;;;;5.25;57.09;100526.97;690969;28;23487;-69
2022/02/14 00:39:59;;;;;;;1061.55;990.47;;;;;;;5.25;56.90;100535.00;689712;28;46414;-69
2022/02/14 00:40:20;;;;;;;1058.80;987.88;;;;;;;5.28;57.01;100526.66;691283;28;21532;-69
2022/02/14 00:40:41;;;;;;;1060.32;989.33;;;;;;;5.32;56.93;100529.91;689850;28;44355;-70
2022/02/14 00:41:04;;;;;;;1061.45;990.35;;;;;;;5.31;56.88;100530.88;691899;28;21453;-69
2022/02/14 00:41:25;;;;;;;1060.32;989.22;;;;;;;5.30;56.92;100524.69;688268;28;44847;-69
2022/02/14 00:41:46;;;;;;;1057.22;986.30;;;;;;;5.30;56.93;100530.03;692496;28;21509;-69
2022/02/14 00:42:07;;;;;;;1056.80;986.05;;;;;;;5.29;56.92;100528.34;693420;28;22400;-69
2022/02/14 00:42:29;;;;;;;1059.90;988.90;;;;;;;5.27;56.70;100525.00;693569;28;23657;-69
2022/02/14 00:42:50;;;;;;;1063.10;991.90;;;;;;;5.27;56.76;100529.50;692629;28;44073;-70
2022/02/14 00:43:12;;;;;;;1059.93;988.92;;;;;;;5.26;56.91;100522.47;693573;28;22453;-70
2022/02/14 00:43:33;;;;;;;1058.03;986.95;;;;;;;5.24;56.76;100519.94;692184;28;69396;-69
2022/02/14 00:43:55;;;;;;;1058.82;987.78;;;;;;;5.27;56.86;100521.47;696353;28;24149;-69
2022/02/14 00:44:16;;;;;;;1057.30;986.30;;;;;;;5.27;56.92;100521.47;695469;28;45241;-69
2022/02/14 00:44:38;;;;;;;1062.13;990.92;;;;;;;5.27;56.93;100526.84;695267;28;23417;-69
2022/02/14 00:44:59;;;;;;;1056.80;985.90;;;;;;;5.29;56.96;100524.84;696273;28;21522;-69
2022/02/14 00:45:21;;;;;;;1057.47;986.53;;;;;;;5.27;56.96;100516.94;696227;28;22327;-69
2022/02/14 00:45:42;;;;;;;1065.70;994.38;;;;;;;5.27;56.89;100522.31;693238;28;70355;-69
2022/02/14 00:46:03;;;;;;;1063.32;992.03;;;;;;;5.27;56.85;100519.63;693562;28;23381;-69
2022/02/14 00:46:24;;;;;;;1059.95;988.85;;;;;;;5.29;56.94;100524.84;693039;28;22235;-70
2022/02/14 00:46:46;;;;;;;1061.20;990.10;;;;;;;5.28;56.84;100515.94;695082;28;21641;-69
2022/02/14 00:47:08;;;;;;;1059.10;988.10;;;;;;;5.30;56.79;100519.34;694855;28;24236;-70
2022/02/14 00:47:29;;;;;;;1048.97;978.38;;;;;;;5.30;56.82;100519.34;693351;28;44391;-69
2022/02/14 00:47:50;;;;;;;1050.85;980.15;;;;;;;5.30;56.75;100518.47;694466;28;24324;-70
2022/02/14 00:48:11;;;;;;;1054.03;983.20;;;;;;;5.30;56.79;100518.47;694962;28;22401;-70
2022/02/14 00:48:34;;;;;;;1060.95;989.92;;;;;;;5.30;56.78;100515.78;693516;28;44159;-69
2022/02/14 00:48:55;;;;;;;1060.25;989.22;;;;;;;5.31;56.77;100518.31;692654;28;46310;-69
2022/02/14 00:49:16;;;;;;;1060.82;989.72;;;;;;;5.29;56.76;100511.44;693883;28;22412;-70
2022/02/14 00:49:37;;;;;;;1061.88;990.78;;;;;;;5.30;56.54;100516.66;693673;28;23477;-69
2022/02/14 00:49:59;;;;;;;1057.82;986.92;;;;;;;5.30;56.65;100510.44;693430;28;23713;-70
2022/02/14 00:50:20;;;;;;;1058.60;987.60;;;;;;;5.28;56.58;100518.63;691636;28;46370;-70
2022/02/14 00:50:42;;;;;;;1060.13;989.03;;;;;;;5.26;56.86;100512.56;692775;28;46341;-69
2022/02/14 00:51:03;;;;;;;1057.15;986.25;;;;;;;5.29;56.67;100516.81;693236;28;23311;-69
2022/02/14 00:51:25;;;;;;;1059.57;988.65;;;;;;;5.29;56.84;100514.97;693021;28;23465;-69
2022/02/14 00:51:46;;;;;;;1061.78;990.67;;;;;;;5.27;56.67;100519.63;692840;28;45047;-69
2022/02/14 00:52:07;;;;;;;1061.05;989.95;;;;;;;5.27;56.62;100508.91;692686;28;46565;-70
2022/02/14 00:52:28;;;;;;;1059.60;988.60;;;;;;;5.25;56.61;100513.59;693579;28;24320;-69
2022/02/14 00:52:52;;;;;;;1055.97;985.03;;;;;;;5.25;56.84;100508.22;693631;28;22388;-69
2022/02/14 00:53:13;;;;;;;1058.40;987.40;;;;;;;5.23;56.74;100508.38;690735;28;69396;-69
2022/02/14 00:53:34;;;;;;;1058.70;987.72;;;;;;;5.24;56.65;100511.91;693111;28;23424;-69
2022/02/14 00:53:56;;;;;;;1058.53;987.58;;;;;;;5.23;56.87;100511.06;692798;28;46308;-69
2022/02/14 00:54:18;;;;;;;1063.90;992.70;;;;;;;5.23;56.81;100516.41;693766;28;22385;-70
2022/02/14 00:54:39;;;;;;;1062.40;991.20;;;;;;;5.23;56.84;100510.19;692417;28;44037;-69
2022/02/14 00:55:00;;;;;;;1062.90;991.70;;;;;;;5.19;56.99;100504.31;692209;28;46712;-70
2022/02/14 00:55:22;;;;;;;1058.03;987.05;;;;;;;5.21;56.85;100507.66;694042;28;22385;-69
2022/02/14 00:55:43;;;;;;;1055.93;984.90;;;;;;;5.21;56.85;100513.03;692555;28;46443;-69
2022/02/14 00:56:05;;;;;;;1055.60;984.55;;;;;;;5.20;56.97;100507.81;693572;28;879;-69
2022/02/14 00:56:27;;;;;;;1057.47;986.47;;;;;;;5.19;56.80;100509.66;693544;28;4215;-70
2022/02/14 00:56:48;;;;;;;1059.57;988.45;;;;;;;5.19;56.97;100514.19;692451;28;46399;-69
2022/02/14 00:57:09;;;;;;;1055.93;985.03;;;;;;;5.20;56.76;100515.84;693589;28;23436;-69
2022/02/14 00:57:30;;;;;;;1060.93;989.83;;;;;;;5.19;56.83;100508.81;692704;28;45216;-70
2022/02/14 00:57:52;;;;;;;1062.00;990.80;;;;;;;5.18;56.75;100509.81;693584;28;21556;-69
2022/02/14 00:58:14;;;;;;;1057.97;986.90;;;;;;;5.14;56.90;100511.94;692769;28;45274;-69
2022/02/14 00:58:35;;;;;;;1060.40;989.30;;;;;;;5.16;56.80;100509.13;693529;28;23725;-69
2022/02/14 00:58:56;;;;;;;1061.90;990.70;;;;;;;5.14;56.83;100511.06;693422;28;22361;-69
2022/02/14 00:59:18;;;;;;;1058.55;987.55;;;;;;;5.14;57.04;100511.06;692857;28;46184;-69
2022/02/14 00:59:41;;;;;;;1056.47;985.55;;;;;;;5.17;56.90;100516.13;692547;28;45311;-69
2022/02/14 01:00:04;;;;;;;1055.95;985.05;;;;;;;5.18;57.09;100517.84;692748;28;45147;-70
2022/02/14 01:00:27;;;;;;;1060.50;989.42;;;;;;;5.19;56.81;100515.00;689912;28;92264;-69
2022/02/14 01:00:50;;;;;;;1070.30;999.13;;;;;;;5.20;56.94;100511.34;691283;28;92132;-69
2022/02/14 01:01:11;;;;;;;1087.72;999.90;;;;;;;5.20;56.93;100513.16;693770;28;21545;-69
2022/02/14 01:01:33;;;;;;;1085.78;999.90;;;;;;;5.23;56.94;100515.56;692730;28;23385;-69
2022/02/14 01:01:56;;;;;;;1071.88;999.80;;;;;;;5.25;56.79;100510.91;692097;28;67477;-69
2022/02/14 01:02:17;;;;;;;1061.78;990.58;;;;;;;5.24;56.86;100510.06;692797;28;44392;-69
2022/02/14 01:02:40;;;;;;;1061.45;990.35;;;;;;;5.24;56.69;100509.22;694033;28;13892;-69
2022/02/14 01:03:02;;;;;;;1054.60;983.90;;;;;;;5.24;56.75;100507.38;693888;28;22370;-70
2022/02/14 01:03:24;;;;;;;1050.80;980.20;;;;;;;5.24;56.77;100503.88;694542;28;1168;-69
2022/02/14 01:03:45;;;;;;;1056.70;985.80;;;;;;;5.22;56.58;100503.19;692558;28;46298;-69
2022/02/14 01:04:06;;;;;;;1054.75;983.90;;;;;;;5.21;56.49;100510.34;693629;28;21066;-70
2022/02/14 01:04:28;;;;;;;1053.45;982.75;;;;;;;5.18;56.72;100502.59;693486;28;17205;-69
2022/02/14 01:04:50;;;;;;;1050.10;979.53;;;;;;;5.18;56.58;100501.78;693519;28;21521;-69
2022/02/14 01:05:11;;;;;;;1052.13;981.53;;;;;;;5.16;56.66;100507.28;692686;28;47205;-70
2022/02/14 01:05:33;;;;;;;1055.57;984.80;;;;;;;5.16;56.83;100511.78;692752;28;44349;-69
2022/02/14 01:05:55;;;;;;;1054.45;983.65;;;;;;;5.16;56.84;100506.44;692955;28;23472;-69
2022/02/14 01:06:16;;;;;;;1054.10;983.33;;;;;;;5.15;56.68;100507.41;693997;28;46406;-69
2022/02/14 01:06:37;;;;;;;1058.07;987.10;;;;;;;5.16;56.82;100504.59;695787;28;23466;-70
2022/02/14 01:06:58;;;;;;;1051.40;980.80;;;;;;;5.18;56.74;100509.81;695819;28;21535;-69
2022/02/14 01:07:20;;;;;;;1054.78;983.97;;;;;;;5.18;56.81;100510.63;695176;28;46276;-69
2022/02/14 01:07:41;;;;;;;1051.47;980.83;;;;;;;5.19;56.89;100506.16;694503;28;10362;-69
2022/02/14 01:08:04;;;;;;;1052.63;981.97;;;;;;;5.19;56.89;100506.97;694405;28;22370;-70
2022/02/14 01:08:27;;;;;;;1055.93;985.13;;;;;;;5.20;56.81;100505.13;692662;28;70212;-70
2022/02/14 01:08:48;;;;;;;1055.95;985.15;;;;;;;5.20;56.78;100503.31;693823;28;46652;-69
2022/02/14 01:09:10;;;;;;;1053.65;982.97;;;;;;;5.20;56.56;100500.66;694790;28;24438;-69
2022/02/14 01:09:32;;;;;;;1051.17;980.67;;;;;;;5.24;56.63;100503.88;692799;28;67737;-69
2022/02/14 01:09:53;;;;;;;1048.15;977.65;;;;;;;5.26;56.77;100501.03;692790;28;45283;-69
2022/02/14 01:10:14;;;;;;;1053.97;983.28;;;;;;;5.26;56.60;100498.34;692801;28;45265;-70
2022/02/14 01:10:35;;;;;;;1054.20;983.42;;;;;;;5.30;56.50;100503.28;692958;28;23440;-69
2022/02/14 01:10:57;;;;;;;1054.45;983.55;;;;;;;5.34;56.52;100498.44;693603;28;23424;-69
2022/02/14 01:11:19;;;;;;;1054.05;983.15;;;;;;;5.36;56.54;100507.16;691756;28;46610;-69
2022/02/14 01:11:40;;;;;;;1056.97;986.03;;;;;;;5.35;56.41;100498.31;693691;28;21524;-70
2022/02/14 01:12:01;;;;;;;1052.25;981.60;;;;;;;5.37;56.18;100496.31;692746;28;47211;-69
2022/02/14 01:12:24;;;;;;;1050.50;979.95;;;;;;;5.38;56.16;100498.00;693569;28;22607;-69
2022/02/14 01:12:45;;;;;;;1055.30;984.50;;;;;;;5.39;56.07;100504.19;691885;28;66903;-70
2022/02/14 01:13:06;;;;;;;1056.45;985.55;;;;;;;5.41;56.03;100500.38;693677;28;22392;-69
2022/02/14 01:13:28;;;;;;;1050.85;980.25;;;;;;;5.40;55.97;100496.00;693713;28;22411;-69
2022/02/14 01:13:52;;;;;;;1051.90;981.25;;;;;;;5.43;56.07;100499.41;693546;28;22363;-69
2022/02/14 01:14:13;;;;;;;1062.03;990.92;;;;;;;5.43;56.00;100496.72;691287;28;90717;-70
2022/02/14 01:14:34;;;;;;;1050.43;979.90;;;;;;;5.41;55.91;100499.56;692694;28;46254;-69
2022/02/14 01:14:56;;;;;;;1051.57;980.97;;;;;;;5.41;55.89;100507.59;693489;28;23461;-69
2022/02/14 01:15:17;;;;;;;1061.80;990.70;;;;;;;5.38;55.82;100497.16;692867;28;46057;-69
2022/02/14 01:15:38;;;;;;;1056.50;985.60;;;;;;;5.36;55.80;100502.69;693396;28;21537;-70
2022/02/14 01:16:00;;;;;;;1053.88;983.00;;;;;;;5.37;55.91;100496.31;692936;28;22424;-69
2022/02/14 01:16:21;;;;;;;1057.30;986.30;;;;;;;5.35;55.93;100495.63;690668;28;46251;-70
2022/02/14 01:16:42;;;;;;;1058.70;987.70;;;;;;;5.32;55.71;100501.28;693018;28;23448;-70
2022/02/14 01:17:04;;;;;;;1058.75;987.75;;;;;;;5.32;55.91;100497.75;693631;28;22338;-70
2022/02/14 01:17:26;;;;;;;1057.45;986.55;;;;;;;5.29;56.09;100488.19;693615;28;13176;-69
2022/02/14 01:17:47;;;;;;;1054.68;983.80;;;;;;;5.27;56.13;100492.03;692940;28;46360;-70
2022/02/14 01:18:08;;;;;;;1055.45;984.63;;;;;;;5.27;56.11;100500.06;693277;28;23394;-69
2022/02/14 01:18:30;;;;;;;1057.35;986.47;;;;;;;5.25;56.15;100489.50;693618;28;21398;-69
2022/02/14 01:18:51;;;;;;;1058.50;987.45;;;;;;;5.22;56.12;100490.63;690868;28;44383;-69
2022/02/14 01:19:12;;;;;;;1060.10;989.00;;;;;;;5.20;56.16;100494.44;692019;28;22401;-69
2022/02/14 01:19:33;;;;;;;1057.80;987.00;;;;;;;5.19;56.08;100492.75;692781;28;21321;-69
2022/02/14 01:19:55;;;;;;;1054.90;984.10;;;;;;;5.17;56.24;100490.22;693699;28;23696;-69
2022/02/14 01:20:16;;;;;;;1055.45;984.65;;;;;;;5.16;56.33;100487.69;693088;28;46153;-69
2022/02/14 01:20:37;;;;;;;1058.63;987.80;;;;;;;5.15;56.28;100491.34;693563;28;22376;-69
2022/02/14 01:20:59;;;;;;;1056.93;986.13;;;;;;;5.14;56.33;100492.34;694060;28;23504;-69
2022/02/14 01:21:21;;;;;;;1055.43;984.70;;;;;;;5.12;56.27;100486.28;692453;28;47098;-69
2022/02/14 01:21:42;;;;;;;1054.88;984.13;;;;;;;5.13;56.38;100490.66;692807;28;45802;-68
2022/02/14 01:22:03;;;;;;;1056.15;985.35;;;;;;;5.10;56.61;100491.81;692988;28;22423;-70
2022/02/14 01:22:24;;;;;;;1058.35;987.45;;;;;;;5.09;56.49;100492.78;693522;28;22384;-69
2022/02/14 01:22:46;;;;;;;1056.38;985.47;;;;;;;5.08;56.61;100487.56;693287;28;22380;-68
2022/02/14 01:23:09;;;;;;;1051.53;980.88;;;;;;;5.05;56.49;100488.72;692305;28;44417;-69
2022/02/14 01:23:30;;;;;;;1057.50;986.60;;;;;;;5.03;56.61;100483.53;691361;28;69795;-69
2022/02/14 01:23:51;;;;;;;1054.72;983.85;;;;;;;5.00;56.64;100483.81;693137;28;21339;-70
2022/02/14 01:24:13;;;;;;;1057.82;986.83;;;;;;;4.99;56.68;100486.63;693776;28;22347;-69
2022/02/14 01:24:37;;;;;;;1061.45;990.35;;;;;;;4.94;56.69;100481.72;692623;28;44426;-69
2022/02/14 01:24:58;;;;;;;1059.78;988.67;;;;;;;4.95;56.84;100482.56;691058;28;91062;-68
2022/02/14 01:25:19;;;;;;;1057.93;987.03;;;;;;;4.93;56.89;100482.69;693393;28;23410;-70
2022/02/14 01:25:41;;;;;;;1059.25;988.25;;;;;;;4.93;56.91;100493.41;693489;28;23396;-69
2022/02/14 01:26:02;;;;;;;1058.18;987.17;;;;;;;4.90;56.92;100485.66;692597;28;45120;-69
2022/02/14 01:26:23;;;;;;;1056.40;985.50;;;;;;;4.91;57.01;100486.53;692749;28;23400;-69
2022/02/14 01:26:45;;;;;;;1057.13;986.22;;;;;;;4.90;57.12;100483.00;693900;28;21519;-69
2022/02/14 01:27:06;;;;;;;1058.20;987.20;;;;;;;4.91;56.93;100473.16;691360;28;46255;-69
2022/02/14 01:27:27;;;;;;;1057.30;986.40;;;;;;;4.92;57.14;100478.38;692652;28;21548;-69
2022/02/14 01:27:48;;;;;;;1058.03;987.03;;;;;;;4.92;57.06;100489.06;693669;28;22379;-69
2022/02/14 01:28:10;;;;;;;1053.13;982.33;;;;;;;4.93;57.15;100487.22;693798;28;21511;-70
2022/02/14 01:28:31;;;;;;;1058.25;987.22;;;;;;;4.93;56.93;100480.03;692098;28;69711;-69
2022/02/14 01:28:56;;;;;;;1060.15;989.05;;;;;;;4.94;56.92;100478.22;693612;28;21517;-69
2022/02/14 01:29:18;;;;;;;1053.25;982.50;;;;;;;4.93;57.01;100474.69;691237;28;92339;-69
2022/02/14 01:29:40;;;;;;;1056.88;985.97;;;;;;;4.93;57.03;100482.69;692555;28;45234;-70
2022/02/14 01:30:01;;;;;;;1060.75;989.65;;;;;;;4.91;56.83;100475.84;694236;28;1017;-69
2022/02/14 01:30:22;;;;;;;1057.38;986.33;;;;;;;4.94;56.90;100481.72;694306;28;1207;-70
2022/02/14 01:30:43;;;;;;;1058.55;987.45;;;;;;;4.95;57.08;100482.56;693494;28;22413;-69
2022/02/14 01:31:05;;;;;;;1062.72;991.53;;;;;;;4.95;56.90;100487.91;694147;28;23503;-69
2022/02/14 01:31:26;;;;;;;1055.07;984.17;;;;;;;4.93;56.89;100482.69;666467;28;43672;-69
2022/02/14 01:31:47;;;;;;;1057.45;986.55;;;;;;;4.91;56.87;100484.69;695747;28;23447;-69
2022/02/14 01:32:08;;;;;;;1063.30;992.15;;;;;;;4.89;56.67;100481.34;694826;28;23839;-69
2022/02/14 01:32:29;;;;;;;1061.20;990.10;;;;;;;4.87;56.83;100481.47;695283;28;22371;-70
2022/02/14 01:32:51;;;;;;;1058.90;987.83;;;;;;;4.86;56.92;100484.31;696261;28;24394;-69
2022/02/14 01:33:12;;;;;;;1059.85;988.75;;;;;;;4.84;56.96;100486.25;695142;28;44365;-69
2022/02/14 01:33:33;;;;;;;1061.87;990.77;;;;;;;4.84;56.93;100484.44;693797;28;23532;-69
2022/02/14 01:33:54;;;;;;;1062.88;991.67;;;;;;;4.83;56.83;100477.41;692754;28;45227;-68
2022/02/14 01:34:17;;;;;;;1059.90;988.90;;;;;;;4.82;57.01;100483.72;693701;28;23485;-69
2022/02/14 01:34:38;;;;;;;1054.35;983.55;;;;;;;4.82;56.82;100481.06;693240;28;45012;-70
2022/02/14 01:34:59;;;;;;;1061.00;989.90;;;;;;;4.80;56.75;100475.00;693581;28;21510;-69
2022/02/14 01:35:21;;;;;;;1057.53;986.63;;;;;;;4.77;56.74;100477.16;693599;28;22337;-69
2022/02/14 01:35:43;;;;;;;1059.83;988.73;;;;;;;4.74;56.94;100474.75;692966;28;22449;-69
2022/02/14 01:36:04;;;;;;;1056.78;985.70;;;;;;;4.68;57.09;100477.00;692617;28;45360;-69
2022/02/14 01:36:26;;;;;;;1053.85;983.05;;;;;;;4.69;57.24;100476.03;692856;28;22269;-69
2022/02/14 01:36:47;;;;;;;1060.72;989.58;;;;;;;4.72;57.15;100476.72;692108;28;69385;-69
2022/02/14 01:37:08;;;;;;;1059.25;988.15;;;;;;;4.72;57.34;100479.38;693370;28;24606;-69
2022/02/14 01:37:32;;;;;;;1058.72;987.65;;;;;;;4.70;57.30;100471.50;693148;28;22345;-70